Terminal Aerodrome Forecast
Issued by NWS Atlanta, GA

Home | Current Version | Previous Version | Text Only | Print | Product List | Glossary On
Versions: 1 2 3 4 5 6 7 8 9 10 11 12 13 14 15 16 17 18 19 20 21 22 23 24 25 26 27 28 29 30 31 32 33 34 35 36 37 38 39 40 41 42 43
000
FTUS42 KFFC 151500 AAB
TAFATL
TAF AMD
KATL 151543Z 1516/1618 09006KT 5SM BR BKN008
     FM151800 13006KT P6SM BKN015
     FM152200 22006KT P6SM VCSH SCT025 BKN040
      TEMPO 1523/1603 4SM -TSRA BKN025CB
     FM160600 25005KT 5SM BR VCSH BKN025
     FM161200 32007KT 6SM BR BKN015
     FM161500 35008KT P6SM SCT025 BKN040=

USA.gov is the U.S. government's official web portal to all federal, state and local government web resources and services.